Terminal Aerodrome Forecast
Issued by NWS

Home | Current Version | Previous Version | Graphics & Text | Print | Product List | Glossary On
Versions: 1 2 3 4 5 6 7 8 9 10 11 12 13
000
FTUS43 KBIS 210524
TAFJMS
TAF
KJMS 210524Z 2106/2206 15006KT P6SM SCT100 OVC200
     FM211100 13008KT P6SM SCT015 BKN120
     FM211800 11006KT P6SM FEW050 SCT200
     FM212100 10006KT P6SM VCTS FEW050CB SCT110
     FM220200 08006KT P6SM FEW060 SCT130
     FM220500 31004KT P6SM FEW060 SCT090=

USA.gov is the U.S. government's official web portal to all federal, state and local government web resources and services.